createdAt,value
2024-02-19T00:01:42.821Z,20.10
2024-02-19T00:04:18.164Z,17.30
2024-02-19T00:06:53.593Z,20.30
2024-02-19T00:09:26.959Z,18.50
2024-02-19T00:12:01.075Z,15.80
2024-02-19T00:14:34.645Z,20.80
2024-02-19T00:17:08.373Z,20.90
2024-02-19T00:19:42.148Z,20.00
2024-02-19T00:22:15.756Z,19.50
2024-02-19T00:24:49.400Z,22.30
2024-02-19T00:27:23.077Z,20.40
2024-02-19T00:29:56.400Z,22.10
2024-02-19T00:32:31.192Z,22.00
2024-02-19T00:35:06.046Z,22.20
2024-02-19T00:37:39.399Z,22.30
2024-02-19T00:40:14.303Z,22.40
2024-02-19T00:42:47.977Z,23.60
2024-02-19T00:45:21.446Z,21.70
2024-02-19T00:50:26.971Z,21.80
2024-02-19T00:53:01.356Z,21.20
2024-02-19T00:55:35.141Z,24.00
2024-02-19T00:58:09.113Z,23.90
2024-02-19T01:00:42.587Z,21.60
2024-02-19T01:03:17.645Z,23.10
2024-02-19T01:05:51.417Z,22.60
2024-02-19T01:08:25.712Z,22.80
2024-02-19T01:10:59.711Z,21.20
2024-02-19T01:13:32.389Z,22.60
2024-02-19T01:16:06.567Z,22.70
2024-02-19T01:18:39.772Z,24.20
2024-02-19T01:21:12.626Z,21.10
2024-02-19T01:23:44.887Z,24.80
2024-02-19T01:26:23.069Z,24.00
2024-02-19T01:28:55.952Z,23.30
2024-02-19T01:31:29.163Z,24.90
2024-02-19T01:34:01.693Z,26.40
2024-02-19T01:36:34.253Z,24.10
2024-02-19T01:39:26.553Z,24.60
2024-02-19T01:42:00.567Z,22.70
2024-02-19T01:44:33.190Z,24.60
2024-02-19T01:47:25.344Z,23.30
2024-02-19T01:49:57.898Z,23.50
2024-02-19T01:52:30.720Z,24.40
2024-02-19T01:55:03.293Z,21.20
2024-02-19T01:57:38.360Z,24.40
2024-02-19T02:00:14.383Z,23.00
2024-02-19T02:02:48.136Z,21.80
2024-02-19T02:05:20.641Z,18.70
2024-02-19T02:07:54.170Z,21.90
2024-02-19T02:10:27.045Z,21.20
2024-02-19T02:13:00.315Z,22.80
2024-02-19T02:15:32.982Z,22.60
2024-02-19T02:18:05.869Z,21.00
2024-02-19T02:20:38.820Z,22.40
2024-02-19T02:23:11.608Z,18.40
2024-02-19T02:25:44.224Z,22.00
2024-02-19T02:28:16.816Z,20.20
2024-02-19T02:30:50.393Z,17.50
2024-02-19T02:33:22.823Z,18.30
2024-02-19T02:35:55.579Z,23.00
2024-02-19T02:38:27.860Z,20.80
2024-02-19T02:41:00.571Z,18.20
2024-02-19T02:43:33.071Z,20.70
2024-02-19T02:46:05.870Z,21.80
2024-02-19T02:48:38.527Z,22.00
2024-02-19T02:51:11.276Z,22.20
2024-02-19T02:53:43.938Z,22.40
2024-02-19T02:57:42.626Z,23.00
2024-02-19T03:00:17.213Z,22.60
2024-02-19T03:02:52.608Z,20.30
2024-02-19T03:05:25.034Z,23.90
2024-02-19T03:07:57.415Z,23.40
2024-02-19T03:10:30.551Z,21.70
2024-02-19T03:13:02.932Z,20.10
2024-02-19T03:15:35.744Z,21.60
2024-02-19T03:18:09.042Z,21.50
2024-02-19T03:20:41.566Z,22.90
2024-02-19T03:23:14.003Z,23.90
2024-02-19T03:25:46.463Z,22.40
2024-02-19T03:28:18.835Z,17.50
2024-02-19T03:30:53.052Z,21.80
2024-02-19T03:33:25.636Z,23.30
2024-02-19T03:35:58.151Z,19.90
2024-02-19T03:38:31.003Z,21.50
2024-02-19T03:41:03.344Z,22.00
2024-02-19T03:43:35.864Z,21.50
2024-02-19T03:46:09.169Z,20.70
2024-02-19T03:48:41.786Z,23.20
2024-02-19T03:51:14.424Z,19.70
2024-02-19T03:53:47.031Z,22.40
2024-02-19T03:56:19.909Z,24.40
2024-02-19T03:58:52.643Z,18.10
2024-02-19T04:01:25.552Z,15.40
2024-02-19T04:03:58.598Z,15.90
2024-02-19T04:06:31.293Z,22.80
2024-02-19T04:09:04.549Z,22.80
2024-02-19T04:11:37.241Z,21.50
2024-02-19T04:14:09.811Z,22.90
2024-02-19T04:16:44.228Z,23.20
2024-02-19T04:19:18.766Z,22.00
2024-02-19T04:21:53.433Z,23.10
2024-02-19T04:24:26.380Z,21.20
2024-02-19T04:26:58.810Z,23.80
2024-02-19T04:29:32.968Z,23.30
2024-02-19T04:32:05.814Z,22.10
2024-02-19T04:34:40.826Z,17.90
2024-02-19T04:37:13.755Z,22.10
2024-02-19T04:39:46.520Z,22.50
2024-02-19T04:42:19.015Z,21.70
2024-02-19T04:44:52.512Z,24.00
2024-02-19T04:47:25.058Z,22.20
2024-02-19T04:49:57.813Z,23.80
2024-02-19T04:52:31.008Z,21.70
2024-02-19T04:55:03.938Z,23.60
2024-02-19T04:57:36.318Z,23.10
2024-02-19T05:00:11.613Z,24.10
2024-02-19T05:02:44.000Z,23.30
2024-02-19T05:05:16.578Z,24.60
2024-02-19T05:07:49.653Z,22.90
2024-02-19T05:10:22.182Z,22.70
2024-02-19T05:12:55.896Z,22.50
2024-02-19T05:17:59.125Z,23.50
2024-02-19T05:20:31.687Z,20.80
2024-02-19T05:23:05.351Z,24.80
2024-02-19T05:25:37.961Z,23.30
2024-02-19T05:28:10.857Z,22.70
2024-02-19T05:30:43.382Z,22.30
2024-02-19T05:33:19.835Z,23.10
2024-02-19T05:35:52.501Z,21.90
2024-02-19T05:38:25.648Z,25.80
2024-02-19T05:40:58.439Z,21.20
2024-02-19T05:43:30.809Z,23.60
2024-02-19T05:46:03.266Z,23.20
2024-02-19T05:48:36.078Z,24.40
2024-02-19T05:51:09.132Z,23.10
2024-02-19T05:56:14.662Z,21.20
2024-02-19T05:58:47.736Z,23.00
2024-02-19T06:01:20.524Z,21.90
2024-02-19T06:03:53.044Z,17.20
2024-02-19T06:06:27.062Z,22.40
2024-02-19T06:08:59.617Z,23.70
2024-02-19T06:11:33.303Z,24.70
2024-02-19T06:16:36.663Z,23.60
2024-02-19T06:19:10.368Z,24.40
2024-02-19T06:21:43.489Z,23.90
2024-02-19T06:24:15.919Z,19.30
2024-02-19T06:26:48.404Z,25.40
2024-02-19T06:29:20.838Z,23.50
2024-02-19T06:31:55.903Z,25.70
2024-02-19T06:34:30.365Z,24.50
2024-02-19T06:37:03.063Z,26.50
2024-02-19T06:39:37.545Z,26.10
2024-02-19T06:42:10.310Z,23.20
2024-02-19T06:44:43.546Z,21.30
2024-02-19T06:47:16.024Z,25.60
2024-02-19T06:49:48.462Z,23.40
2024-02-19T06:52:24.490Z,25.10
2024-02-19T06:54:56.917Z,25.10
2024-02-19T06:57:29.374Z,24.50
2024-02-19T07:00:01.751Z,20.00
2024-02-19T07:02:34.362Z,24.10
2024-02-19T07:05:09.151Z,25.00
2024-02-19T07:07:42.041Z,25.40
2024-02-19T07:10:14.940Z,24.70
2024-02-19T07:12:47.301Z,24.50
2024-02-19T07:15:19.713Z,24.90
2024-02-19T07:17:53.655Z,25.10
2024-02-19T07:20:26.141Z,25.40
2024-02-19T07:22:58.561Z,24.40
2024-02-19T07:25:31.334Z,25.50
2024-02-19T07:28:03.865Z,25.50
2024-02-19T07:30:38.780Z,25.00
2024-02-19T07:33:11.649Z,24.90
2024-02-19T07:35:46.237Z,19.60
2024-02-19T07:38:19.600Z,25.10
2024-02-19T07:40:53.610Z,25.70
2024-02-19T07:43:26.264Z,25.10
2024-02-19T07:45:59.157Z,26.10
2024-02-19T07:48:32.294Z,25.90
2024-02-19T07:51:04.813Z,26.10
2024-02-19T07:53:37.209Z,26.70
2024-02-19T07:56:10.632Z,23.90
2024-02-19T07:58:43.048Z,24.60
2024-02-19T08:01:15.364Z,24.90
2024-02-19T08:03:47.793Z,25.00
2024-02-19T08:06:20.318Z,24.40
2024-02-19T08:08:52.834Z,23.90
2024-02-19T08:11:25.835Z,22.20
2024-02-19T08:13:58.716Z,23.70
2024-02-19T08:16:31.334Z,24.70
2024-02-19T08:19:04.315Z,26.20
2024-02-19T08:21:36.846Z,23.50
2024-02-19T08:24:10.286Z,23.90
2024-02-19T08:26:42.672Z,24.80
2024-02-19T08:29:15.143Z,24.10
2024-02-19T08:31:47.456Z,26.10
2024-02-19T08:34:20.131Z,25.00
2024-02-19T08:36:52.824Z,25.50
2024-02-19T08:39:25.805Z,24.30
2024-02-19T08:41:59.940Z,22.00
2024-02-19T08:44:32.582Z,24.70
2024-02-19T08:47:09.382Z,25.60
2024-02-19T08:49:43.204Z,23.10
2024-02-19T08:52:16.112Z,21.70
2024-02-19T08:54:48.526Z,23.80
2024-02-19T08:57:21.668Z,24.50
2024-02-19T08:59:54.327Z,23.60
2024-02-19T09:02:26.930Z,25.20
2024-02-19T09:05:01.164Z,24.20
2024-02-19T09:07:34.484Z,23.90
2024-02-19T09:10:09.697Z,24.70
2024-02-19T09:12:42.375Z,25.90
2024-02-19T09:15:21.698Z,26.60
2024-02-19T09:17:54.483Z,26.70
2024-02-19T09:20:27.089Z,25.50
2024-02-19T09:22:59.293Z,24.60
2024-02-19T09:25:33.024Z,26.30
2024-02-19T09:30:41.351Z,23.90
2024-02-19T09:33:14.109Z,24.60
2024-02-19T09:35:49.339Z,24.10
2024-02-19T09:38:22.978Z,24.60
2024-02-19T09:43:27.612Z,23.00
2024-02-19T09:46:01.323Z,24.00
2024-02-19T09:48:36.754Z,26.20
2024-02-19T09:51:12.771Z,24.40
2024-02-19T09:53:47.572Z,26.30
2024-02-19T09:56:21.033Z,26.90
2024-02-19T09:58:53.936Z,25.80
2024-02-19T10:01:26.978Z,26.00
2024-02-19T10:04:01.512Z,26.60
2024-02-19T10:06:37.833Z,27.60
2024-02-19T10:09:12.971Z,25.70
2024-02-19T10:11:45.467Z,26.60
2024-02-19T10:14:18.649Z,21.10
2024-02-19T10:16:55.292Z,26.40
2024-02-19T10:19:31.343Z,25.60
2024-02-19T10:22:03.873Z,27.60
2024-02-19T10:24:36.304Z,27.20
2024-02-19T10:27:09.919Z,25.90
2024-02-19T10:29:42.812Z,27.10
2024-02-19T10:32:15.451Z,26.90
2024-02-19T10:34:47.840Z,26.90
2024-02-19T10:37:20.555Z,25.80
2024-02-19T10:39:53.289Z,26.90
2024-02-19T10:42:26.167Z,27.90
2024-02-19T10:45:00.653Z,21.90
2024-02-19T10:47:33.690Z,27.50
2024-02-19T10:50:11.317Z,27.60
2024-02-19T10:52:49.585Z,25.90
2024-02-19T10:55:32.140Z,26.40
2024-02-19T10:58:20.700Z,26.40
2024-02-19T11:00:55.148Z,26.20
2024-02-19T11:03:29.148Z,26.70
2024-02-19T11:06:04.532Z,27.00
2024-02-19T11:08:38.428Z,26.70
2024-02-19T11:11:11.317Z,26.90
2024-02-19T11:13:47.152Z,21.70
2024-02-19T11:16:29.136Z,25.30
2024-02-19T11:19:03.888Z,25.90
2024-02-19T11:21:36.339Z,27.00
2024-02-19T11:24:10.348Z,25.80
2024-02-19T11:26:45.752Z,25.90
2024-02-19T11:29:19.714Z,27.00
2024-02-19T11:32:04.149Z,27.60
2024-02-19T11:37:09.225Z,26.00
2024-02-19T11:39:44.081Z,25.80
2024-02-19T11:42:18.158Z,26.10
2024-02-19T11:44:51.210Z,25.40
2024-02-19T11:47:23.731Z,26.20
2024-02-19T11:49:57.478Z,26.70
2024-02-19T11:52:30.100Z,27.10
2024-02-19T11:55:02.625Z,26.90
2024-02-19T11:57:35.384Z,25.30
2024-02-19T12:00:12.983Z,25.40
2024-02-19T12:02:49.548Z,26.80
2024-02-19T12:05:22.264Z,27.50
2024-02-19T12:07:55.715Z,26.40
2024-02-19T12:13:02.005Z,25.00
2024-02-19T12:15:35.102Z,26.40
2024-02-19T12:18:08.231Z,28.10
2024-02-19T12:20:40.642Z,27.30
2024-02-19T12:23:15.936Z,27.20
2024-02-19T12:25:48.397Z,28.50
2024-02-19T12:28:21.829Z,26.80
2024-02-19T12:30:54.367Z,27.50
2024-02-19T12:33:26.888Z,27.30
2024-02-19T12:35:59.504Z,28.20
2024-02-19T12:38:31.910Z,25.90
2024-02-19T12:41:05.763Z,26.30
2024-02-19T12:43:38.719Z,25.50
2024-02-19T12:46:11.870Z,20.40
2024-02-19T12:48:45.919Z,25.20
2024-02-19T12:51:18.506Z,26.20
2024-02-19T12:53:50.842Z,25.70
2024-02-19T12:56:24.013Z,18.20
2024-02-19T12:58:56.318Z,25.70
2024-02-19T13:01:32.649Z,26.40
2024-02-19T13:04:06.263Z,26.10
2024-02-19T13:06:38.824Z,26.50
2024-02-19T13:09:12.325Z,27.00
2024-02-19T13:14:15.289Z,26.10
2024-02-19T13:16:54.736Z,28.10
2024-02-19T13:19:35.108Z,27.30
2024-02-19T13:22:08.178Z,28.40
2024-02-19T13:24:41.278Z,28.40
2024-02-19T13:27:13.780Z,28.60
2024-02-19T13:29:46.473Z,29.80
2024-02-19T13:32:18.932Z,28.20
2024-02-19T13:34:51.436Z,27.80
2024-02-19T13:37:26.422Z,28.20
2024-02-19T13:39:58.968Z,27.60
2024-02-19T13:42:31.390Z,28.70
2024-02-19T13:45:03.880Z,28.00
2024-02-19T13:47:38.639Z,25.90
2024-02-19T13:50:14.160Z,27.00
2024-02-19T13:52:46.899Z,23.20
2024-02-19T13:55:22.433Z,22.50
2024-02-19T13:57:54.915Z,21.90
2024-02-19T14:00:29.811Z,22.10
2024-02-19T14:03:02.450Z,19.30
2024-02-19T14:05:35.139Z,19.20
2024-02-19T14:08:10.336Z,18.00
2024-02-19T14:10:43.555Z,17.50
2024-02-19T14:13:17.675Z,17.50
2024-02-19T14:15:50.320Z,18.40
2024-02-19T14:18:22.887Z,17.50
2024-02-19T14:20:57.984Z,16.80
2024-02-19T14:23:30.964Z,15.80
2024-02-19T14:26:03.358Z,14.80
2024-02-19T14:28:35.769Z,12.70
2024-02-19T14:31:08.441Z,11.50
2024-02-19T14:33:40.917Z,11.40
2024-02-19T14:36:13.920Z,11.30
2024-02-19T14:38:46.437Z,10.80
2024-02-19T14:41:19.043Z,9.90
2024-02-19T14:43:51.514Z,10.70
2024-02-19T14:46:24.179Z,10.10
2024-02-19T14:48:56.944Z,9.50
2024-02-19T14:51:32.417Z,10.50
2024-02-19T14:54:07.423Z,8.80
2024-02-19T14:56:42.700Z,8.00
2024-02-19T14:59:15.493Z,6.50
2024-02-19T15:01:48.355Z,5.90
2024-02-19T15:04:20.923Z,6.30
2024-02-19T15:06:53.464Z,7.10
2024-02-19T15:09:25.876Z,6.50
2024-02-19T15:11:58.206Z,6.40
2024-02-19T15:14:30.631Z,5.60
2024-02-19T15:17:03.169Z,5.90
2024-02-19T15:19:37.426Z,6.30
2024-02-19T15:22:10.174Z,5.60
2024-02-19T15:24:43.003Z,5.00
2024-02-19T15:27:16.334Z,5.80
2024-02-19T15:29:49.013Z,5.90
2024-02-19T15:32:22.994Z,5.70
2024-02-19T15:34:57.007Z,5.30
2024-02-19T15:37:30.244Z,6.00
2024-02-19T15:40:04.226Z,7.10
2024-02-19T15:42:39.020Z,7.60
2024-02-19T15:45:29.387Z,8.10
2024-02-19T15:48:01.708Z,8.20
2024-02-19T15:50:34.041Z,7.50
2024-02-19T15:53:11.163Z,6.60
2024-02-19T15:55:45.544Z,7.00
2024-02-19T15:58:18.764Z,6.70
2024-02-19T16:00:51.562Z,7.60
2024-02-19T16:03:25.158Z,6.60
2024-02-19T16:06:02.641Z,6.70
2024-02-19T16:08:44.596Z,7.50
2024-02-19T16:11:17.098Z,7.80
2024-02-19T16:13:51.065Z,6.40
2024-02-19T16:16:25.649Z,6.80
2024-02-19T16:19:05.931Z,6.70
2024-02-19T16:21:43.909Z,6.30
2024-02-19T16:24:23.983Z,5.80
2024-02-19T16:27:01.701Z,5.90
2024-02-19T16:29:54.918Z,5.90
2024-02-19T16:32:33.122Z,5.60
2024-02-19T16:35:06.551Z,5.50
2024-02-19T16:40:12.682Z,7.10
2024-02-19T16:42:45.608Z,8.60
2024-02-19T16:45:19.177Z,8.70
2024-02-19T16:50:22.741Z,9.80
2024-02-19T16:52:55.992Z,10.10
2024-02-19T16:55:30.273Z,10.60
2024-02-19T16:58:04.865Z,9.10
2024-02-19T17:00:37.979Z,9.90
2024-02-19T17:03:10.813Z,9.90
2024-02-19T17:05:50.221Z,11.00
2024-02-19T17:08:27.354Z,10.50
2024-02-19T17:11:02.726Z,9.80
2024-02-19T17:13:38.571Z,8.90
2024-02-19T17:16:12.813Z,7.90
2024-02-19T17:18:45.354Z,8.50
2024-02-19T17:21:17.640Z,8.00
2024-02-19T17:23:50.316Z,6.60
2024-02-19T17:26:27.018Z,6.70
2024-02-19T17:29:03.156Z,7.10
2024-02-19T17:31:38.018Z,6.30
2024-02-19T17:34:14.240Z,8.30
2024-02-19T17:36:49.645Z,8.40
2024-02-19T17:39:26.764Z,10.20
2024-02-19T17:41:59.264Z,10.80
2024-02-19T17:44:34.094Z,8.20
2024-02-19T17:47:16.871Z,7.50
2024-02-19T17:49:56.914Z,6.90
2024-02-19T17:52:29.929Z,7.10
2024-02-19T17:55:03.901Z,7.20
2024-02-19T17:57:37.911Z,7.20
2024-02-19T18:00:14.253Z,6.70
2024-02-19T18:02:51.604Z,6.40
2024-02-19T18:05:26.000Z,5.40
2024-02-19T18:08:01.246Z,5.50
2024-02-19T18:10:43.436Z,6.80
2024-02-19T18:13:20.389Z,6.50
2024-02-19T18:15:53.533Z,6.70
2024-02-19T18:18:28.344Z,7.70
2024-02-19T18:21:04.899Z,7.60
2024-02-19T18:23:39.425Z,7.90
2024-02-19T18:26:14.418Z,8.90
2024-02-19T18:28:48.954Z,8.30
2024-02-19T18:31:22.607Z,8.40
2024-02-19T18:33:55.249Z,7.50
2024-02-19T18:36:27.926Z,8.10
2024-02-19T18:39:00.218Z,7.60
2024-02-19T18:41:33.661Z,8.20
2024-02-19T18:44:07.815Z,8.60
2024-02-19T18:46:40.389Z,7.40
2024-02-19T18:49:16.339Z,7.30
2024-02-19T18:51:50.030Z,6.60
2024-02-19T18:54:24.055Z,6.70
2024-02-19T18:56:57.011Z,6.00
2024-02-19T18:59:29.822Z,5.80
2024-02-19T19:02:05.308Z,5.60
2024-02-19T19:04:38.344Z,8.70
2024-02-19T19:07:11.058Z,5.50
2024-02-19T19:09:43.356Z,7.10
2024-02-19T19:12:18.751Z,6.10
2024-02-19T19:14:51.082Z,6.40
2024-02-19T19:17:24.135Z,5.80
2024-02-19T19:19:57.094Z,6.30
2024-02-19T19:22:32.420Z,6.20
2024-02-19T19:25:11.461Z,6.40
2024-02-19T19:27:48.709Z,6.80
2024-02-19T19:30:28.330Z,6.50
2024-02-19T19:33:04.794Z,7.60
2024-02-19T19:35:44.862Z,7.20
2024-02-19T19:38:23.393Z,6.90
2024-02-19T19:40:59.993Z,6.70
2024-02-19T19:43:37.597Z,8.20
2024-02-19T19:46:12.689Z,6.50
2024-02-19T19:48:48.227Z,5.90
2024-02-19T19:51:27.176Z,6.00
2024-02-19T19:54:03.760Z,4.60
2024-02-19T19:56:46.072Z,5.10
2024-02-19T19:59:21.304Z,4.10
2024-02-19T20:01:57.370Z,3.40
2024-02-19T20:04:36.200Z,3.70
2024-02-19T20:07:10.480Z,3.20
2024-02-19T20:09:46.186Z,3.50
2024-02-19T20:12:21.753Z,3.10
2024-02-19T20:14:54.391Z,3.20
2024-02-19T20:17:29.789Z,3.00
2024-02-19T20:20:02.524Z,2.70
2024-02-19T20:22:35.256Z,2.30
2024-02-19T20:25:08.766Z,2.10
2024-02-19T20:27:41.929Z,3.00
2024-02-19T20:30:15.879Z,3.10
2024-02-19T20:32:48.386Z,3.00
2024-02-19T20:35:21.281Z,2.70
2024-02-19T20:37:53.767Z,3.00
2024-02-19T20:40:26.533Z,2.50
2024-02-19T20:43:01.405Z,3.00
2024-02-19T20:45:41.839Z,3.10
2024-02-19T20:48:14.322Z,4.30
2024-02-19T20:50:47.693Z,3.40
2024-02-19T20:53:20.053Z,3.00
2024-02-19T20:55:59.365Z,3.40
2024-02-19T20:58:43.970Z,3.40
2024-02-19T21:01:21.439Z,3.60
2024-02-19T21:03:54.435Z,3.40
2024-02-19T21:06:29.231Z,3.70
2024-02-19T21:09:02.373Z,3.40
2024-02-19T21:11:35.016Z,3.60
2024-02-19T21:14:08.614Z,3.80
2024-02-19T21:19:13.411Z,3.60
2024-02-19T21:21:45.932Z,3.70
2024-02-19T21:24:18.398Z,4.00
2024-02-19T21:26:51.934Z,4.50
2024-02-19T21:29:27.706Z,4.20
2024-02-19T21:32:00.257Z,4.30
2024-02-19T21:34:32.679Z,4.70
2024-02-19T21:37:05.808Z,4.80
2024-02-19T21:39:38.198Z,4.10
2024-02-19T21:42:12.926Z,3.80
2024-02-19T21:44:48.059Z,3.80
2024-02-19T21:47:20.696Z,3.30
2024-02-19T21:49:53.371Z,3.00
2024-02-19T21:52:27.191Z,3.20
2024-02-19T21:55:02.978Z,3.30
2024-02-19T21:57:37.434Z,3.70
2024-02-19T22:00:13.382Z,3.50
2024-02-19T22:02:45.883Z,3.90
2024-02-19T22:05:18.445Z,3.60
2024-02-19T22:07:52.214Z,3.50
2024-02-19T22:10:24.540Z,3.20
2024-02-19T22:12:57.050Z,3.10
2024-02-19T22:15:31.719Z,3.40
2024-02-19T22:18:05.379Z,3.20
2024-02-19T22:20:37.867Z,3.50
2024-02-19T22:23:10.319Z,3.80
2024-02-19T22:25:42.891Z,3.70
2024-02-19T22:28:15.243Z,3.60
2024-02-19T22:30:47.699Z,4.00
2024-02-19T22:33:20.176Z,3.50
2024-02-19T22:35:53.031Z,4.30
2024-02-19T22:38:25.299Z,4.20
2024-02-19T22:40:57.835Z,4.50
2024-02-19T22:43:30.815Z,3.90
2024-02-19T22:46:03.292Z,4.30
2024-02-19T22:48:35.633Z,4.30
2024-02-19T22:51:08.727Z,4.10
2024-02-19T22:53:41.197Z,4.40
2024-02-19T22:56:13.589Z,4.50
2024-02-19T22:58:46.101Z,4.30
2024-02-19T23:01:20.746Z,4.00
2024-02-19T23:03:53.171Z,3.30
2024-02-19T23:06:25.587Z,3.50
2024-02-19T23:08:57.992Z,3.10
2024-02-19T23:11:30.441Z,3.10
2024-02-19T23:14:03.050Z,3.20
2024-02-19T23:16:35.621Z,3.00
2024-02-19T23:19:08.466Z,2.60
2024-02-19T23:21:41.402Z,3.10
2024-02-19T23:24:13.768Z,2.80
2024-02-19T23:26:48.064Z,3.50
2024-02-19T23:29:20.753Z,3.40
2024-02-19T23:31:53.203Z,3.50
2024-02-19T23:34:25.757Z,4.20
2024-02-19T23:36:58.513Z,4.00
2024-02-19T23:39:30.931Z,4.00
2024-02-19T23:42:03.248Z,4.30
2024-02-19T23:44:36.073Z,4.40
2024-02-19T23:47:10.109Z,3.80
2024-02-19T23:49:43.451Z,5.10
2024-02-19T23:52:15.917Z,4.90
2024-02-19T23:54:48.388Z,5.40
2024-02-19T23:57:20.824Z,6.00
2024-02-19T23:59:53.012Z,7.30
